createdAt,value
2022-12-31T00:01:51.816Z,2.99
2022-12-31T00:04:18.686Z,3.05
2022-12-31T00:06:46.289Z,3.07
2022-12-31T00:09:13.360Z,3.00
2022-12-31T00:11:40.377Z,3.11
2022-12-31T00:14:07.753Z,3.03
2022-12-31T00:16:37.870Z,2.83
2022-12-31T00:19:06.337Z,2.64
2022-12-31T00:21:34.098Z,2.44
2022-12-31T00:24:02.361Z,2.27
2022-12-31T00:26:31.827Z,2.31
2022-12-31T00:29:00.627Z,2.04
2022-12-31T00:31:27.427Z,1.98
2022-12-31T00:33:54.583Z,1.85
2022-12-31T00:36:23.888Z,1.93
2022-12-31T00:38:52.616Z,1.76
2022-12-31T00:41:21.203Z,1.76
2022-12-31T00:43:48.605Z,1.68
2022-12-31T00:46:15.956Z,1.65
2022-12-31T00:48:43.634Z,1.91
2022-12-31T00:51:13.425Z,1.87
2022-12-31T00:53:40.409Z,2.03
2022-12-31T00:56:13.318Z,2.11
2022-12-31T00:58:40.572Z,2.14
2022-12-31T01:01:16.571Z,2.16
2022-12-31T01:03:44.157Z,2.16
2022-12-31T01:06:11.217Z,2.11
2022-12-31T01:08:38.136Z,2.09
2022-12-31T01:11:22.763Z,2.11
2022-12-31T01:13:57.374Z,2.03
2022-12-31T01:16:32.649Z,2.14
2022-12-31T01:19:07.005Z,2.13
2022-12-31T01:21:36.018Z,1.96
2022-12-31T01:24:02.830Z,1.99
2022-12-31T01:26:30.132Z,1.87
2022-12-31T01:28:57.046Z,2.02
2022-12-31T01:31:24.713Z,1.97
2022-12-31T01:33:52.593Z,1.96
2022-12-31T01:36:26.279Z,1.89
2022-12-31T01:38:55.671Z,1.82
2022-12-31T01:41:33.839Z,1.76
2022-12-31T01:44:02.712Z,1.77
2022-12-31T01:46:29.631Z,1.70
2022-12-31T01:49:00.317Z,1.68
2022-12-31T01:51:31.713Z,1.53
2022-12-31T01:54:00.464Z,1.38
2022-12-31T01:56:27.450Z,1.45
2022-12-31T01:58:57.429Z,1.29
2022-12-31T02:01:31.236Z,1.14
2022-12-31T02:04:04.012Z,1.22
2022-12-31T02:06:39.512Z,1.44
2022-12-31T02:09:07.491Z,1.46
2022-12-31T02:11:37.914Z,1.21
2022-12-31T02:14:09.462Z,1.36
2022-12-31T02:16:50.805Z,1.49
2022-12-31T02:19:45.239Z,1.48
2022-12-31T02:22:43.167Z,1.19
2022-12-31T02:25:20.638Z,1.28
2022-12-31T02:28:09.011Z,1.31
2022-12-31T02:30:37.475Z,1.24
2022-12-31T02:33:25.647Z,1.33
2022-12-31T02:36:01.245Z,1.34
2022-12-31T02:38:32.754Z,1.34
2022-12-31T02:41:00.862Z,1.39
2022-12-31T02:43:28.086Z,1.49
2022-12-31T02:46:06.166Z,1.37
2022-12-31T02:49:02.435Z,1.45
2022-12-31T02:51:46.787Z,1.51
2022-12-31T02:54:32.079Z,1.61
2022-12-31T02:57:20.540Z,1.67
2022-12-31T03:00:17.799Z,1.51
2022-12-31T03:02:47.263Z,1.63
2022-12-31T03:05:15.936Z,1.55
2022-12-31T03:07:44.109Z,1.61
2022-12-31T03:10:11.025Z,1.50
2022-12-31T03:12:46.827Z,1.20
2022-12-31T03:15:22.627Z,1.01
2022-12-31T03:18:09.712Z,1.10
2022-12-31T03:21:00.851Z,1.07
2022-12-31T03:23:27.647Z,0.92
2022-12-31T03:25:56.513Z,0.89
2022-12-31T03:28:26.509Z,0.80
2022-12-31T03:30:59.609Z,0.88
2022-12-31T03:33:31.924Z,1.10
2022-12-31T03:35:58.772Z,1.20
2022-12-31T03:38:25.660Z,1.36
2022-12-31T03:40:53.339Z,1.25
2022-12-31T03:43:20.686Z,1.31
2022-12-31T03:45:52.489Z,1.38
2022-12-31T03:48:21.070Z,1.36
2022-12-31T03:50:48.215Z,1.13
2022-12-31T03:53:15.539Z,1.27
2022-12-31T03:55:42.414Z,1.39
2022-12-31T03:58:09.354Z,1.32
2022-12-31T04:00:36.483Z,1.20
2022-12-31T04:03:03.344Z,1.32
2022-12-31T04:05:30.213Z,1.48
2022-12-31T04:07:57.038Z,1.53
2022-12-31T04:10:23.937Z,1.68
2022-12-31T04:12:51.082Z,1.60
2022-12-31T04:15:20.611Z,1.55
2022-12-31T04:17:48.561Z,1.63
2022-12-31T04:20:16.466Z,1.83
2022-12-31T04:22:44.379Z,1.44
2022-12-31T04:25:11.606Z,1.54
2022-12-31T04:27:43.897Z,1.68
2022-12-31T04:30:12.376Z,1.74
2022-12-31T04:32:39.434Z,1.78
2022-12-31T04:35:07.536Z,1.88
2022-12-31T04:37:34.761Z,1.64
2022-12-31T04:40:05.840Z,1.67
2022-12-31T04:42:34.315Z,1.66
2022-12-31T04:45:01.184Z,1.75
2022-12-31T04:47:28.093Z,1.84
2022-12-31T04:49:54.923Z,1.69
2022-12-31T04:52:22.477Z,1.43
2022-12-31T04:54:49.475Z,1.39
2022-12-31T04:57:16.431Z,1.61
2022-12-31T04:59:43.459Z,1.75
2022-12-31T05:02:10.531Z,1.65
2022-12-31T05:04:37.488Z,1.75
2022-12-31T05:07:04.333Z,1.76
2022-12-31T05:09:31.283Z,1.85
2022-12-31T05:11:58.270Z,1.73
2022-12-31T05:14:25.802Z,1.77
2022-12-31T05:16:53.654Z,1.80
2022-12-31T05:19:20.656Z,1.81
2022-12-31T05:22:07.471Z,1.87
2022-12-31T05:24:34.314Z,1.87
2022-12-31T05:27:01.224Z,1.85
2022-12-31T05:29:28.038Z,1.76
2022-12-31T05:31:55.012Z,1.77
2022-12-31T05:34:21.816Z,1.75
2022-12-31T05:36:48.623Z,1.71
2022-12-31T05:39:15.465Z,1.80
2022-12-31T05:41:42.312Z,1.75
2022-12-31T05:44:11.072Z,1.76
2022-12-31T05:46:37.927Z,1.73
2022-12-31T05:49:05.072Z,1.74
2022-12-31T05:51:31.933Z,1.78
2022-12-31T05:53:58.807Z,1.84
2022-12-31T05:56:25.705Z,1.88
2022-12-31T05:58:52.522Z,1.73
2022-12-31T06:01:19.371Z,1.46
2022-12-31T06:03:46.795Z,1.35
2022-12-31T06:06:14.022Z,1.49
2022-12-31T06:08:40.908Z,1.54
2022-12-31T06:11:08.099Z,1.60
2022-12-31T06:13:34.887Z,1.54
2022-12-31T06:16:09.739Z,1.62
2022-12-31T06:18:37.509Z,1.64
2022-12-31T06:21:04.658Z,1.73
2022-12-31T06:23:31.586Z,1.85
2022-12-31T06:26:05.479Z,1.86
2022-12-31T06:28:32.745Z,1.71
2022-12-31T06:31:00.898Z,1.82
2022-12-31T06:33:27.977Z,1.98
2022-12-31T06:36:05.871Z,3.22
2022-12-31T06:38:34.391Z,4.06
2022-12-31T06:41:05.343Z,4.44
2022-12-31T06:43:32.413Z,5.00
2022-12-31T06:46:07.746Z,5.62
2022-12-31T06:48:34.938Z,5.36
2022-12-31T06:51:10.613Z,4.95
2022-12-31T06:53:40.466Z,4.38
2022-12-31T06:56:08.620Z,3.74
2022-12-31T06:58:36.027Z,3.34
2022-12-31T07:01:25.758Z,3.13
2022-12-31T07:04:38.480Z,2.74
2022-12-31T07:07:26.441Z,2.89
2022-12-31T07:10:00.207Z,2.82
2022-12-31T07:12:51.754Z,2.59
2022-12-31T07:15:48.058Z,2.96
2022-12-31T07:18:42.055Z,3.06
2022-12-31T07:21:16.073Z,3.66
2022-12-31T07:23:43.467Z,3.66
2022-12-31T07:26:30.421Z,3.73
2022-12-31T07:29:18.569Z,4.02
2022-12-31T07:32:02.367Z,6.02
2022-12-31T07:34:55.351Z,7.61
2022-12-31T07:37:27.983Z,7.73
2022-12-31T07:39:57.393Z,8.03
2022-12-31T07:42:52.456Z,8.10
2022-12-31T07:45:19.249Z,8.33
2022-12-31T07:47:46.401Z,8.70
2022-12-31T07:50:18.420Z,8.63
2022-12-31T07:52:46.610Z,8.73
2022-12-31T07:55:13.441Z,8.13
2022-12-31T07:58:15.476Z,8.58
2022-12-31T08:00:42.577Z,9.01
2022-12-31T08:03:15.495Z,9.14
2022-12-31T08:06:11.077Z,9.38
2022-12-31T08:08:51.493Z,9.55
2022-12-31T08:11:47.335Z,9.79
2022-12-31T08:14:15.459Z,9.57
2022-12-31T08:16:42.758Z,9.92
2022-12-31T08:19:25.700Z,10.25
2022-12-31T08:22:06.720Z,10.55
2022-12-31T08:24:58.802Z,10.36
2022-12-31T08:28:02.959Z,10.46
2022-12-31T08:30:52.343Z,10.78
2022-12-31T08:33:37.072Z,10.80
2022-12-31T08:36:39.078Z,10.97
2022-12-31T08:39:24.138Z,10.82
2022-12-31T08:41:55.138Z,11.10
2022-12-31T08:44:44.218Z,11.24
2022-12-31T08:47:16.971Z,11.12
2022-12-31T08:49:44.059Z,10.85
2022-12-31T08:52:16.341Z,10.72
2022-12-31T08:54:43.531Z,10.95
2022-12-31T08:57:28.770Z,10.72
2022-12-31T09:00:11.975Z,10.79
2022-12-31T09:03:08.069Z,10.58
2022-12-31T09:05:58.875Z,11.08
2022-12-31T09:08:53.009Z,11.06
2022-12-31T09:11:32.839Z,11.42
2022-12-31T09:14:17.634Z,11.73
2022-12-31T09:16:52.514Z,11.77
2022-12-31T09:19:19.635Z,11.77
2022-12-31T09:21:46.804Z,11.53
2022-12-31T09:24:15.569Z,11.50
2022-12-31T09:26:58.141Z,12.05
2022-12-31T09:29:30.821Z,11.95
2022-12-31T09:32:36.324Z,12.18
2022-12-31T09:35:15.716Z,12.03
2022-12-31T09:37:51.006Z,12.18
2022-12-31T09:40:42.845Z,12.06
2022-12-31T09:43:42.696Z,12.44
2022-12-31T09:46:27.338Z,12.67
2022-12-31T09:49:21.898Z,12.60
2022-12-31T09:52:00.242Z,12.62
2022-12-31T09:54:30.154Z,12.63
2022-12-31T09:57:04.684Z,12.81
2022-12-31T09:59:44.140Z,12.86
2022-12-31T10:02:33.057Z,12.94
2022-12-31T10:05:25.636Z,12.80
2022-12-31T10:08:12.839Z,12.72
2022-12-31T10:10:53.752Z,12.85
2022-12-31T10:13:41.025Z,12.69
2022-12-31T10:16:18.819Z,12.90
2022-12-31T10:19:13.360Z,12.87
2022-12-31T10:22:14.451Z,13.11
2022-12-31T10:24:44.186Z,13.26
2022-12-31T10:27:32.458Z,13.54
2022-12-31T10:30:17.679Z,13.35
2022-12-31T10:32:44.669Z,13.60
2022-12-31T10:35:21.119Z,13.75
2022-12-31T10:38:04.538Z,13.66
2022-12-31T10:40:58.258Z,13.75
2022-12-31T10:43:50.489Z,13.81
2022-12-31T10:46:56.773Z,13.74
2022-12-31T10:49:54.564Z,12.24
2022-12-31T10:52:27.110Z,11.87
2022-12-31T10:55:13.209Z,11.71
2022-12-31T10:57:51.662Z,12.64
2022-12-31T11:00:21.045Z,12.84
2022-12-31T11:03:02.077Z,13.05
2022-12-31T11:06:06.023Z,12.83
2022-12-31T11:09:19.342Z,11.99
2022-12-31T11:12:10.799Z,12.53
2022-12-31T11:15:13.076Z,13.27
2022-12-31T11:18:13.896Z,13.44
2022-12-31T11:20:58.108Z,14.13
2022-12-31T11:24:13.281Z,13.94
2022-12-31T11:27:01.612Z,14.05
2022-12-31T11:29:49.244Z,14.35
2022-12-31T11:32:53.786Z,13.82
2022-12-31T11:35:31.497Z,14.18
2022-12-31T11:38:49.274Z,14.21
2022-12-31T11:41:39.761Z,14.53
2022-12-31T11:44:24.908Z,15.03
2022-12-31T11:46:54.709Z,14.91
2022-12-31T11:49:52.253Z,14.63
2022-12-31T11:52:43.662Z,14.36
2022-12-31T11:55:21.353Z,14.53
2022-12-31T11:57:52.378Z,14.95
2022-12-31T12:00:20.893Z,14.90
2022-12-31T12:02:54.988Z,15.17
2022-12-31T12:05:26.278Z,14.96
2022-12-31T12:07:54.368Z,14.67
2022-12-31T12:10:44.714Z,14.53
2022-12-31T12:13:26.841Z,14.35
2022-12-31T12:15:59.577Z,14.55
2022-12-31T12:18:33.746Z,13.96
2022-12-31T12:21:10.788Z,13.52
2022-12-31T12:23:38.943Z,13.96
2022-12-31T12:26:07.399Z,14.65
2022-12-31T12:28:46.048Z,14.26
2022-12-31T12:31:22.533Z,14.48
2022-12-31T12:33:52.173Z,14.51
2022-12-31T12:36:21.002Z,14.33
2022-12-31T12:38:48.288Z,14.78
2022-12-31T12:41:25.456Z,14.63
2022-12-31T12:44:14.801Z,14.82
2022-12-31T12:46:48.692Z,14.35
2022-12-31T12:49:40.491Z,14.84
2022-12-31T12:52:24.119Z,15.32
2022-12-31T12:55:06.173Z,15.32
2022-12-31T12:57:45.519Z,15.39
2022-12-31T13:00:17.612Z,15.49
2022-12-31T13:03:18.441Z,15.78
2022-12-31T13:05:57.276Z,19.56
2022-12-31T13:08:27.187Z,24.20
2022-12-31T13:11:06.391Z,26.75
2022-12-31T13:13:45.378Z,27.29
2022-12-31T13:16:22.920Z,25.86
2022-12-31T13:19:05.042Z,26.84
2022-12-31T13:22:16.520Z,22.49
2022-12-31T13:25:02.563Z,19.49
2022-12-31T13:27:43.924Z,17.32
2022-12-31T13:30:18.428Z,16.88
2022-12-31T13:32:53.180Z,16.25
2022-12-31T13:35:27.198Z,15.82
2022-12-31T13:38:05.627Z,15.49
2022-12-31T13:41:21.359Z,15.02
2022-12-31T13:44:04.833Z,14.96
2022-12-31T13:46:42.831Z,14.57
2022-12-31T13:49:19.199Z,14.42
2022-12-31T13:51:52.628Z,14.24
2022-12-31T13:54:51.459Z,13.87
2022-12-31T13:57:48.934Z,13.66
2022-12-31T14:00:21.701Z,13.74
2022-12-31T14:03:24.055Z,13.90
2022-12-31T14:06:32.605Z,13.70
2022-12-31T14:08:59.745Z,13.50
2022-12-31T14:11:53.301Z,13.65
2022-12-31T14:14:31.509Z,13.61
2022-12-31T14:17:04.219Z,13.54
2022-12-31T14:20:04.889Z,13.26
2022-12-31T14:22:56.935Z,12.80
2022-12-31T14:25:27.199Z,12.78
2022-12-31T14:27:57.075Z,12.56
2022-12-31T14:30:31.017Z,12.58
2022-12-31T14:33:33.254Z,12.37
2022-12-31T14:36:10.363Z,12.20
2022-12-31T14:38:56.404Z,11.93
2022-12-31T14:41:35.011Z,11.86
2022-12-31T14:44:32.943Z,11.79
2022-12-31T14:47:13.713Z,11.69
2022-12-31T14:49:49.973Z,11.49
2022-12-31T14:52:26.678Z,11.33
2022-12-31T14:55:03.959Z,11.20
2022-12-31T14:58:01.729Z,11.14
2022-12-31T15:00:40.197Z,11.00
2022-12-31T15:03:24.416Z,10.82
2022-12-31T15:06:06.613Z,10.75
2022-12-31T15:08:49.373Z,10.61
2022-12-31T15:11:22.931Z,10.55
2022-12-31T15:13:56.185Z,10.48
2022-12-31T15:16:44.845Z,10.43
2022-12-31T15:19:43.530Z,10.38
2022-12-31T15:22:48.467Z,10.23
2022-12-31T15:25:38.418Z,10.14
2022-12-31T15:28:23.755Z,10.04
2022-12-31T15:30:51.700Z,9.97
2022-12-31T15:33:29.684Z,9.90
2022-12-31T15:35:57.857Z,9.76
2022-12-31T15:38:32.749Z,9.74
2022-12-31T15:41:00.570Z,9.68
2022-12-31T15:43:50.870Z,9.61
2022-12-31T15:46:25.728Z,9.52
2022-12-31T15:49:10.349Z,9.47
2022-12-31T15:51:49.404Z,9.28
2022-12-31T15:54:47.915Z,9.39
2022-12-31T15:57:31.498Z,9.30
2022-12-31T16:00:00.216Z,9.13
2022-12-31T16:02:29.075Z,9.07
2022-12-31T16:04:56.341Z,8.99
2022-12-31T16:07:26.482Z,8.80
2022-12-31T16:09:57.269Z,8.70
2022-12-31T16:12:32.713Z,8.71
2022-12-31T16:15:02.167Z,8.57
2022-12-31T16:17:36.975Z,8.42
2022-12-31T16:20:23.395Z,8.36
2022-12-31T16:22:53.493Z,8.34
2022-12-31T16:25:36.561Z,8.33
2022-12-31T16:28:03.981Z,8.36
2022-12-31T16:30:35.817Z,8.21
2022-12-31T16:33:05.625Z,8.20
2022-12-31T16:35:35.072Z,8.05
2022-12-31T16:38:10.742Z,8.00
2022-12-31T16:40:38.659Z,8.04
2022-12-31T16:43:29.697Z,8.00
2022-12-31T16:45:59.223Z,7.92
2022-12-31T16:48:26.745Z,7.93
2022-12-31T16:50:55.946Z,7.88
2022-12-31T16:53:26.265Z,7.79
2022-12-31T16:56:01.814Z,7.78
2022-12-31T16:58:33.585Z,7.59
2022-12-31T17:01:16.193Z,7.35
2022-12-31T17:03:46.871Z,7.34
2022-12-31T17:06:19.053Z,7.28
2022-12-31T17:08:49.583Z,7.23
2022-12-31T17:11:24.025Z,7.21
2022-12-31T17:14:05.893Z,7.31
2022-12-31T17:16:35.584Z,7.24
2022-12-31T17:19:03.487Z,7.27
2022-12-31T17:21:32.543Z,7.21
2022-12-31T17:24:06.027Z,7.08
2022-12-31T17:26:38.408Z,7.08
2022-12-31T17:29:06.100Z,7.21
2022-12-31T17:31:38.585Z,7.23
2022-12-31T17:34:14.457Z,7.25
2022-12-31T17:36:54.637Z,7.08
2022-12-31T17:39:23.440Z,6.86
2022-12-31T17:41:52.792Z,6.99
2022-12-31T17:44:29.416Z,7.15
2022-12-31T17:46:56.585Z,6.95
2022-12-31T17:49:29.652Z,6.83
2022-12-31T17:51:56.561Z,6.82
2022-12-31T17:54:23.623Z,6.70
2022-12-31T17:56:51.823Z,6.64
2022-12-31T17:59:22.735Z,6.66
2022-12-31T18:01:50.136Z,6.70
2022-12-31T18:04:19.252Z,6.55
2022-12-31T18:06:46.124Z,6.57
2022-12-31T18:09:13.025Z,6.58
2022-12-31T18:11:40.917Z,6.57
2022-12-31T18:14:07.926Z,6.60
2022-12-31T18:16:34.923Z,6.57
2022-12-31T18:19:02.048Z,6.53
2022-12-31T18:21:34.631Z,6.38
2022-12-31T18:26:32.753Z,6.47
2022-12-31T18:29:10.908Z,6.48
2022-12-31T18:31:37.843Z,6.40
2022-12-31T18:34:04.763Z,6.40
2022-12-31T18:36:31.550Z,6.35
2022-12-31T18:38:58.367Z,6.36
2022-12-31T18:41:33.236Z,6.44
2022-12-31T18:44:00.068Z,6.44
2022-12-31T18:46:27.836Z,6.42
2022-12-31T18:48:54.700Z,6.36
2022-12-31T18:51:31.405Z,6.26
2022-12-31T18:54:01.149Z,6.19
2022-12-31T18:56:28.501Z,6.07
2022-12-31T18:58:55.379Z,6.06
2022-12-31T19:01:32.932Z,5.96
2022-12-31T19:04:27.024Z,5.70
2022-12-31T19:06:55.420Z,5.71
2022-12-31T19:12:13.651Z,5.52
2022-12-31T19:14:40.576Z,5.41
2022-12-31T19:19:34.908Z,5.51
2022-12-31T19:22:02.875Z,5.39
2022-12-31T19:24:30.245Z,5.27
2022-12-31T19:26:57.235Z,5.27
2022-12-31T19:29:26.426Z,5.31
2022-12-31T19:31:53.986Z,5.27
2022-12-31T19:34:21.315Z,5.35
2022-12-31T19:36:48.120Z,5.31
2022-12-31T19:39:18.278Z,5.30
2022-12-31T19:41:46.142Z,5.15
2022-12-31T19:44:17.897Z,5.04
2022-12-31T19:46:46.377Z,5.02
2022-12-31T19:49:14.389Z,5.03
2022-12-31T19:51:41.933Z,5.06
2022-12-31T19:54:09.047Z,4.98
2022-12-31T19:56:36.082Z,4.96
2022-12-31T19:59:08.360Z,4.91
2022-12-31T20:01:35.511Z,4.93
2022-12-31T20:04:02.446Z,4.94
2022-12-31T20:06:29.353Z,4.95
2022-12-31T20:08:56.259Z,5.05
2022-12-31T20:11:24.861Z,4.84
2022-12-31T20:13:53.701Z,4.94
2022-12-31T20:16:23.507Z,4.98
2022-12-31T20:18:50.861Z,5.00
2022-12-31T20:21:20.982Z,5.08
2022-12-31T20:23:49.326Z,5.20
2022-12-31T20:26:16.943Z,5.12
2022-12-31T20:28:43.894Z,5.14
2022-12-31T20:31:13.516Z,5.11
2022-12-31T20:33:41.000Z,5.06
2022-12-31T20:36:10.794Z,5.02
2022-12-31T20:38:38.137Z,4.81
2022-12-31T20:41:07.488Z,4.47
2022-12-31T20:43:35.198Z,4.28
2022-12-31T20:46:15.699Z,4.39
2022-12-31T20:48:44.600Z,4.42
2022-12-31T20:51:13.024Z,4.35
2022-12-31T20:53:40.229Z,4.43
2022-12-31T20:56:08.654Z,4.44
2022-12-31T20:58:35.959Z,4.24
2022-12-31T21:01:06.522Z,4.41
2022-12-31T21:06:22.992Z,4.56
2022-12-31T21:08:49.819Z,4.51
2022-12-31T21:11:35.367Z,4.38
2022-12-31T21:14:02.760Z,4.45
2022-12-31T21:16:29.933Z,4.40
2022-12-31T21:18:56.726Z,4.42
2022-12-31T21:21:24.089Z,4.41
2022-12-31T21:23:51.013Z,4.41
2022-12-31T21:26:17.936Z,4.46
2022-12-31T21:28:45.514Z,4.43
2022-12-31T21:31:14.322Z,4.32
2022-12-31T21:33:45.855Z,4.30
2022-12-31T21:36:13.696Z,4.16
2022-12-31T21:38:40.825Z,4.19
2022-12-31T21:41:09.384Z,4.16
2022-12-31T21:43:36.245Z,4.14
2022-12-31T21:46:05.169Z,4.09
2022-12-31T21:48:32.139Z,3.96
2022-12-31T21:51:12.913Z,3.86
2022-12-31T21:53:40.355Z,3.82
2022-12-31T21:56:08.665Z,3.80
2022-12-31T21:58:37.240Z,3.80
2022-12-31T22:01:23.196Z,3.77
2022-12-31T22:03:50.545Z,3.91
2022-12-31T22:06:22.746Z,4.09
2022-12-31T22:08:51.979Z,4.23
2022-12-31T22:11:21.077Z,4.43
2022-12-31T22:13:48.498Z,4.59
2022-12-31T22:16:17.193Z,4.56
2022-12-31T22:18:44.482Z,4.64
2022-12-31T22:21:29.546Z,4.55
2022-12-31T22:23:58.780Z,4.55
2022-12-31T22:26:28.569Z,4.57
2022-12-31T22:28:59.776Z,4.55
2022-12-31T22:31:30.139Z,4.54
2022-12-31T22:33:58.545Z,4.48
2022-12-31T22:36:26.591Z,4.69
2022-12-31T22:38:58.326Z,4.75
2022-12-31T22:41:26.782Z,4.72
2022-12-31T22:44:02.594Z,4.71
2022-12-31T22:46:29.907Z,4.60
2022-12-31T22:48:58.611Z,4.55
2022-12-31T22:51:55.024Z,4.47
2022-12-31T22:54:13.942Z,4.53
2022-12-31T22:56:41.325Z,4.36
2022-12-31T22:59:08.327Z,4.25
2022-12-31T23:01:35.252Z,3.81
2022-12-31T23:04:02.306Z,3.76
2022-12-31T23:06:29.447Z,3.59
2022-12-31T23:09:14.799Z,3.67
2022-12-31T23:11:43.359Z,3.60
2022-12-31T23:14:34.795Z,3.70
2022-12-31T23:17:30.016Z,3.99
2022-12-31T23:20:18.961Z,4.33
2022-12-31T23:23:06.036Z,4.69
2022-12-31T23:25:38.399Z,4.87
2022-12-31T23:28:05.756Z,4.88
2022-12-31T23:30:33.123Z,4.82
2022-12-31T23:33:00.110Z,4.76
2022-12-31T23:35:26.971Z,4.59
2022-12-31T23:37:53.843Z,4.55
2022-12-31T23:40:21.777Z,4.49
2022-12-31T23:42:50.285Z,4.47
2022-12-31T23:45:17.314Z,4.38
2022-12-31T23:47:44.110Z,4.24
2022-12-31T23:50:10.929Z,4.18
2022-12-31T23:52:37.784Z,4.06
2022-12-31T23:55:04.994Z,4.02
2022-12-31T23:57:32.101Z,4.07
2022-12-31T23:59:59.014Z,4.01
